Time;durP1;ratioP1;P1;durP2;ratioP2;P2;SDS_P1;SDS_P2;PMS_P1;PMS_P2;Temp;Humidity;BMP_temperature;BMP_pressure;BME280_temperature;BME280_humidity;BME280_pressure;Samples;Min_cycle;Max_cycle;Signal;HPM_P1;HPM_P2
2022/01/09 00:01:39;;;;;;;73.60;35.00;;;;;;;-2.09;54.86;98138.11;106123;1274;97959;-71
2022/01/09 00:04:07;;;;;;;77.60;36.30;;;;;;;-2.08;54.77;98134.80;106229;1274;97758;-71
2022/01/09 00:06:36;;;;;;;77.00;38.00;;;;;;;-2.10;54.87;98125.80;106121;1274;111270;-71
2022/01/09 00:09:04;;;;;;;83.00;36.80;;;;;;;-2.10;54.79;98124.08;106111;1274;97843;-71
2022/01/09 00:11:32;;;;;;;109.00;51.90;;;;;;;-2.10;54.78;98124.92;106084;1273;107823;-71
2022/01/09 00:14:00;;;;;;;86.50;39.00;;;;;;;-2.09;54.70;98123.02;106141;1272;95606;-70
2022/01/09 00:16:27;;;;;;;72.80;34.50;;;;;;;-2.10;54.82;98115.73;106306;1274;97876;-71
2022/01/09 00:18:55;;;;;;;70.80;34.90;;;;;;;-2.10;54.75;98116.44;106249;1274;110575;-70
2022/01/09 00:21:26;;;;;;;75.80;35.60;;;;;;;-2.13;54.94;98112.34;107967;1272;96032;-72
2022/01/09 00:23:54;;;;;;;73.90;34.20;;;;;;;-2.14;54.85;98105.45;107205;1274;107737;-72
2022/01/09 00:26:22;;;;;;;74.80;33.90;;;;;;;-2.14;54.95;98106.65;106238;1274;97888;-71
2022/01/09 00:28:50;;;;;;;73.70;34.10;;;;;;;-2.14;54.93;98102.83;106197;1274;96262;-70
2022/01/09 00:31:17;;;;;;;76.70;36.10;;;;;;;-2.12;54.91;98096.54;106096;1274;111369;-71
2022/01/09 00:33:45;;;;;;;80.90;38.60;;;;;;;-2.14;54.80;98095.04;106097;1274;95689;-71
2022/01/09 00:36:13;;;;;;;76.20;36.30;;;;;;;-2.15;54.82;98092.96;106069;1274;109443;-71
2022/01/09 00:38:43;;;;;;;73.80;35.40;;;;;;;-2.15;54.98;98086.18;106104;1274;97930;-70
2022/01/09 00:41:10;;;;;;;78.60;35.40;;;;;;;-2.16;55.01;98093.05;106111;1274;96608;-70
2022/01/09 00:43:41;;;;;;;75.60;36.50;;;;;;;-2.18;55.20;98091.36;106055;1274;111914;-71
2022/01/09 00:46:11;;;;;;;79.00;36.00;;;;;;;-2.20;55.27;98088.48;106149;1274;97834;-70
2022/01/09 00:48:39;;;;;;;79.80;35.70;;;;;;;-2.23;55.33;98083.55;106099;1273;107719;-70
2022/01/09 00:51:08;;;;;;;74.90;36.10;;;;;;;-2.26;55.24;98081.41;106111;1273;97852;-70
2022/01/09 00:53:37;;;;;;;73.90;37.00;;;;;;;-2.30;55.33;98077.71;106198;1274;97899;-71
2022/01/09 00:56:05;;;;;;;82.90;37.80;;;;;;;-2.32;55.29;98078.99;106105;1274;112173;-72
2022/01/09 00:58:33;;;;;;;70.50;35.00;;;;;;;-2.34;55.30;98079.27;106200;1274;97975;-73
2022/01/09 01:01:02;;;;;;;76.00;36.50;;;;;;;-2.36;55.38;98073.23;106200;1273;107826;-71
2022/01/09 01:03:32;;;;;;;80.50;36.00;;;;;;;-2.38;55.25;98068.30;106231;1274;98456;-72
2022/01/09 01:06:00;;;;;;;85.80;39.10;;;;;;;-2.46;55.14;98070.13;106131;1274;97862;-71
2022/01/09 01:08:30;;;;;;;84.20;38.20;;;;;;;-2.59;55.45;98072.85;106137;1273;111145;-70
2022/01/09 01:10:58;;;;;;;85.50;39.80;;;;;;;-2.69;55.63;98066.23;106231;1273;97747;-71
2022/01/09 01:13:25;;;;;;;86.30;41.40;;;;;;;-2.73;55.44;98061.34;106177;1274;107376;-72
2022/01/09 01:15:53;;;;;;;83.60;37.20;;;;;;;-2.72;55.42;98059.06;106141;1274;97887;-72
2022/01/09 01:18:21;;;;;;;85.80;41.00;;;;;;;-2.74;55.50;98055.48;106166;1274;97970;-69
2022/01/09 01:20:49;;;;;;;93.60;42.60;;;;;;;-2.80;55.42;98047.70;106116;1274;111399;-70
2022/01/09 01:23:17;;;;;;;87.50;39.50;;;;;;;-2.82;55.32;98045.52;106164;1273;97976;-71
2022/01/09 01:25:50;;;;;;;88.40;40.60;;;;;;;-2.90;55.41;98049.09;106193;1274;107745;-73
2022/01/09 01:28:20;;;;;;;91.70;42.00;;;;;;;-3.00;55.43;98043.86;106208;1273;97873;-72
2022/01/09 01:30:48;;;;;;;92.60;44.40;;;;;;;-3.09;55.43;98045.92;106210;1274;96999;-72
2022/01/09 01:33:16;;;;;;;94.40;45.90;;;;;;;-3.18;55.36;98042.90;106031;1274;111381;-71
2022/01/09 01:35:44;;;;;;;102.30;47.00;;;;;;;-3.23;55.36;98034.56;106136;1274;97861;-72
2022/01/09 01:38:12;;;;;;;109.30;49.00;;;;;;;-3.27;55.57;98029.86;106139;1274;107732;-72
2022/01/09 01:40:40;;;;;;;102.80;48.50;;;;;;;-3.28;55.56;98023.14;106164;1273;96878;-71
2022/01/09 01:43:11;;;;;;;107.60;48.70;;;;;;;-3.32;55.40;98023.78;106140;1274;95423;-70
2022/01/09 01:45:40;;;;;;;105.60;50.20;;;;;;;-3.38;55.64;98015.48;106233;1273;111390;-71
2022/01/09 01:48:09;;;;;;;131.70;53.40;;;;;;;-3.45;55.68;98011.56;106156;1273;95643;-70
2022/01/09 01:50:42;;;;;;;108.70;51.30;;;;;;;-3.48;55.92;98005.44;106031;1274;108695;-70
2022/01/09 01:53:16;;;;;;;121.80;54.50;;;;;;;-3.50;55.88;98001.84;106273;1273;97981;-67
2022/01/09 01:55:51;;;;;;;115.60;53.70;;;;;;;-3.47;55.81;98006.95;106126;1273;97887;-70
2022/01/09 01:58:22;;;;;;;124.90;57.00;;;;;;;-3.51;55.95;97999.10;106036;1276;111415;-71
2022/01/09 02:00:53;;;;;;;119.00;54.60;;;;;;;-3.59;56.08;97997.60;106236;1274;97887;-71
2022/01/09 02:03:20;;;;;;;121.90;54.60;;;;;;;-3.66;56.19;97993.34;106160;1273;107741;-70
2022/01/09 02:05:50;;;;;;;120.10;55.50;;;;;;;-3.69;56.29;97990.67;106119;1274;98001;-71
2022/01/09 02:08:20;;;;;;;125.90;53.90;;;;;;;-3.70;56.33;97989.50;106185;1274;95288;-69
2022/01/09 02:10:48;;;;;;;124.50;59.70;;;;;;;-3.73;56.34;97990.63;106110;1274;111382;-71
2022/01/09 02:13:19;;;;;;;126.20;57.00;;;;;;;-3.73;56.49;97991.66;106162;1274;97888;-70
2022/01/09 02:15:50;;;;;;;122.70;57.30;;;;;;;-3.71;56.53;97990.39;106159;1274;107784;-70
2022/01/09 02:18:21;;;;;;;127.50;59.20;;;;;;;-3.72;56.51;97986.77;106164;1274;97966;-71
2022/01/09 02:20:52;;;;;;;120.90;55.50;;;;;;;-3.70;56.58;97983.95;106132;1274;95194;-71
2022/01/09 02:23:20;;;;;;;122.90;56.30;;;;;;;-3.65;56.65;97983.59;106177;1274;111399;-72
2022/01/09 02:25:50;;;;;;;119.70;55.40;;;;;;;-3.60;56.64;97981.00;106150;1274;97970;-69
2022/01/09 02:28:20;;;;;;;126.20;57.20;;;;;;;-3.54;57.01;97978.23;106139;1273;107734;-71
2022/01/09 02:30:49;;;;;;;118.60;54.30;;;;;;;-3.52;56.80;97975.05;106213;1274;97876;-71
2022/01/09 02:33:18;;;;;;;111.90;53.90;;;;;;;-3.50;56.85;97971.66;106241;1274;97925;-71
2022/01/09 02:35:52;;;;;;;117.10;54.20;;;;;;;-3.48;56.68;97973.54;106119;1274;111382;-69
2022/01/09 02:38:22;;;;;;;119.20;53.30;;;;;;;-3.49;56.73;97970.28;106142;1274;97866;-71
2022/01/09 02:40:55;;;;;;;109.00;50.30;;;;;;;-3.49;56.85;97968.53;106163;1274;107790;-72
2022/01/09 02:43:25;;;;;;;87.90;42.00;;;;;;;-3.50;56.82;97966.11;106236;1274;97963;-71
2022/01/09 02:46:02;;;;;;;127.00;57.70;;;;;;;-3.50;57.06;97959.74;106138;1276;97895;-72
2022/01/09 02:48:35;;;;;;;105.30;49.80;;;;;;;-3.50;56.82;97959.37;106121;1273;111093;-71
2022/01/09 02:51:11;;;;;;;104.60;44.60;;;;;;;-3.49;56.71;97955.02;106014;1274;97872;-71
2022/01/09 02:53:39;;;;;;;112.10;50.90;;;;;;;-3.51;56.72;97950.75;106161;1273;105439;-72
2022/01/09 02:56:10;;;;;;;107.40;46.80;;;;;;;-3.56;56.89;97946.05;106023;1274;97951;-71
2022/01/09 02:58:39;;;;;;;106.50;49.70;;;;;;;-3.63;57.30;97942.10;106267;1274;97886;-70
2022/01/09 03:01:11;;;;;;;102.40;47.70;;;;;;;-3.74;58.01;97942.31;106236;1274;111002;-71
2022/01/09 03:03:40;;;;;;;108.90;50.20;;;;;;;-3.87;58.26;97939.27;106216;1272;96348;-71
2022/01/09 03:06:09;;;;;;;95.80;45.90;;;;;;;-3.97;58.77;97935.08;106246;1274;107712;-69
2022/01/09 03:08:38;;;;;;;104.90;46.30;;;;;;;-4.07;59.37;97928.46;106228;1274;97834;-70
2022/01/09 03:11:07;;;;;;;126.90;53.10;;;;;;;-4.19;59.63;97927.96;106182;1274;97867;-71
2022/01/09 03:13:35;;;;;;;119.50;53.70;;;;;;;-4.33;59.58;97925.11;106144;1274;111041;-71
2022/01/09 03:16:03;;;;;;;110.60;51.70;;;;;;;-4.42;59.21;97919.69;106169;1273;97873;-70
2022/01/09 03:18:31;;;;;;;113.90;53.90;;;;;;;-4.46;58.77;97915.45;106170;1273;105585;-70
2022/01/09 03:20:59;;;;;;;109.30;53.00;;;;;;;-4.44;58.58;97914.02;106163;1273;97924;-70
2022/01/09 03:23:26;;;;;;;113.00;52.60;;;;;;;-4.40;58.60;97915.63;106175;1274;97882;-71
2022/01/09 03:25:54;;;;;;;120.80;56.80;;;;;;;-4.37;58.66;97917.78;106209;1274;111285;-70
2022/01/09 03:28:22;;;;;;;112.80;53.80;;;;;;;-4.35;58.50;97913.39;106183;1274;97985;-72
2022/01/09 03:30:50;;;;;;;114.50;54.50;;;;;;;-4.30;58.60;97912.93;106038;1273;148334;-70
2022/01/09 03:33:21;;;;;;;116.40;53.30;;;;;;;-4.26;58.54;97910.73;106098;1273;95844;-72
2022/01/09 03:35:50;;;;;;;115.90;51.10;;;;;;;-4.25;58.51;97906.18;106044;1274;97812;-72
2022/01/09 03:38:18;;;;;;;116.20;53.40;;;;;;;-4.25;58.51;97910.14;106190;1274;112729;-71
2022/01/09 03:40:46;;;;;;;114.40;53.70;;;;;;;-4.22;58.78;97911.95;106142;1274;97899;-69
2022/01/09 03:43:14;;;;;;;109.20;52.60;;;;;;;-4.21;58.57;97911.25;106198;1274;109124;-70
2022/01/09 03:45:45;;;;;;;117.50;53.80;;;;;;;-4.17;58.69;97913.89;106193;1273;96378;-69
2022/01/09 03:48:13;;;;;;;112.20;53.70;;;;;;;-4.12;58.71;97910.11;106173;1274;97879;-70
2022/01/09 03:50:42;;;;;;;97.60;43.60;;;;;;;-4.08;58.78;97911.36;106194;1273;110148;-70
2022/01/09 03:53:12;;;;;;;90.50;40.40;;;;;;;-4.05;58.82;97912.47;106188;1273;97957;-70
2022/01/09 03:55:43;;;;;;;97.20;42.00;;;;;;;-4.04;58.72;97910.88;106128;1274;107766;-71
2022/01/09 03:58:11;;;;;;;102.30;44.70;;;;;;;-4.02;58.89;97912.20;106168;1273;98651;-71
2022/01/09 04:00:42;;;;;;;102.70;49.20;;;;;;;-3.97;58.92;97911.70;106150;1274;97912;-72
2022/01/09 04:03:10;;;;;;;109.50;52.60;;;;;;;-3.91;59.00;97910.64;106161;1274;110078;-71
2022/01/09 04:05:39;;;;;;;113.00;52.00;;;;;;;-3.85;58.98;97916.19;106217;1273;97935;-70
2022/01/09 04:08:07;;;;;;;106.00;48.70;;;;;;;-3.81;59.08;97921.58;106197;1274;107591;-70
2022/01/09 04:10:43;;;;;;;98.80;46.00;;;;;;;-3.76;58.76;97920.88;106201;1274;98010;-70
2022/01/09 04:13:13;;;;;;;94.00;42.70;;;;;;;-3.71;58.99;97924.90;106251;1274;97862;-69
2022/01/09 04:15:47;;;;;;;96.60;46.00;;;;;;;-3.66;59.16;97922.30;106150;1274;111429;-71
2022/01/09 04:18:21;;;;;;;80.20;37.30;;;;;;;-3.61;59.06;97922.63;106115;1274;95262;-69
2022/01/09 04:20:51;;;;;;;70.60;31.90;;;;;;;-3.57;58.91;97920.27;106207;1274;107789;-70
2022/01/09 04:23:22;;;;;;;60.10;28.10;;;;;;;-3.53;58.70;97915.10;106204;1274;95356;-68
2022/01/09 04:25:53;;;;;;;66.40;29.80;;;;;;;-3.53;58.83;97920.65;106257;1274;97856;-66
2022/01/09 04:28:21;;;;;;;66.50;31.50;;;;;;;-3.54;59.10;97914.11;106262;1274;111266;-71
2022/01/09 04:30:49;;;;;;;63.00;28.80;;;;;;;-3.54;59.19;97912.72;106185;1273;95639;-72
2022/01/09 04:33:16;;;;;;;63.10;29.50;;;;;;;-3.56;59.35;97911.41;106143;1274;107796;-74
2022/01/09 04:35:46;;;;;;;62.10;29.20;;;;;;;-3.58;59.44;97915.46;106237;1274;97889;-72
2022/01/09 04:38:14;;;;;;;64.90;31.00;;;;;;;-3.64;59.69;97914.41;106194;1272;97876;-72
2022/01/09 04:40:42;;;;;;;73.00;32.90;;;;;;;-3.70;60.27;97910.13;106194;1274;111374;-70
2022/01/09 04:43:11;;;;;;;71.10;32.30;;;;;;;-3.82;61.05;97912.77;106184;1273;97880;-71
2022/01/09 04:45:40;;;;;;;72.80;32.70;;;;;;;-3.95;61.06;97913.36;106194;1273;107655;-71
2022/01/09 04:48:12;;;;;;;78.00;33.10;;;;;;;-4.04;61.08;97917.30;106201;1274;98088;-70
2022/01/09 04:50:42;;;;;;;71.80;34.40;;;;;;;-4.13;61.21;97914.29;106278;1274;97866;-73
2022/01/09 04:53:11;;;;;;;70.90;33.60;;;;;;;-4.20;61.03;97919.16;106225;1272;111521;-72
2022/01/09 04:55:47;;;;;;;79.90;36.60;;;;;;;-4.25;61.45;97922.61;106119;1274;97863;-72
2022/01/09 04:58:18;;;;;;;77.30;37.80;;;;;;;-4.32;61.08;97914.70;106176;1272;107547;-70
2022/01/09 05:00:48;;;;;;;73.60;35.80;;;;;;;-4.37;61.44;97915.88;106149;1274;99002;-72
2022/01/09 05:03:18;;;;;;;83.00;39.00;;;;;;;-4.42;61.27;97914.11;106201;1274;97982;-71
2022/01/09 05:05:49;;;;;;;82.60;35.30;;;;;;;-4.44;60.93;97912.47;106124;1274;111352;-70
2022/01/09 05:08:17;;;;;;;81.10;38.60;;;;;;;-4.46;60.76;97902.66;106181;1274;97927;-74
2022/01/09 05:10:44;;;;;;;85.90;38.10;;;;;;;-4.44;60.68;97897.41;106116;1276;105415;-72
2022/01/09 05:13:12;;;;;;;73.40;32.50;;;;;;;-4.40;60.84;97893.47;106140;1274;97985;-73
2022/01/09 05:15:40;;;;;;;77.10;33.60;;;;;;;-4.41;61.20;97890.06;106099;1274;97936;-71
2022/01/09 05:18:13;;;;;;;73.80;36.00;;;;;;;-4.47;60.86;97890.42;106134;1274;112132;-72
2022/01/09 05:20:44;;;;;;;72.30;34.10;;;;;;;-4.47;60.92;97897.52;106142;1274;97747;-71
2022/01/09 05:23:12;;;;;;;79.60;35.90;;;;;;;-4.46;60.74;97895.74;106144;1274;109718;-71
2022/01/09 05:25:40;;;;;;;80.20;36.00;;;;;;;-4.44;60.68;97890.66;106148;1274;95204;-70
2022/01/09 05:28:07;;;;;;;80.00;35.20;;;;;;;-4.40;60.66;97892.80;106138;1274;97933;-72
2022/01/09 05:30:37;;;;;;;71.40;31.60;;;;;;;-4.40;60.72;97898.02;106147;1274;112086;-71
2022/01/09 05:33:05;;;;;;;67.90;31.00;;;;;;;-4.43;60.78;97897.20;106141;1274;97895;-70
2022/01/09 05:35:33;;;;;;;65.10;31.70;;;;;;;-4.43;60.68;97897.56;106085;1274;107679;-70
2022/01/09 05:38:00;;;;;;;64.70;30.60;;;;;;;-4.44;60.76;97896.36;106171;1274;97844;-73
2022/01/09 05:40:28;;;;;;;69.70;32.90;;;;;;;-4.45;60.81;97890.53;106251;1274;97854;-72
2022/01/09 05:42:57;;;;;;;66.20;30.70;;;;;;;-4.46;60.86;97887.42;106252;1274;111094;-70
2022/01/09 05:45:24;;;;;;;69.60;31.90;;;;;;;-4.47;61.16;97888.52;106123;1274;97030;-72
2022/01/09 05:47:52;;;;;;;73.00;34.20;;;;;;;-4.52;60.99;97891.42;106190;1274;107738;-71
2022/01/09 05:50:24;;;;;;;72.10;35.10;;;;;;;-4.52;60.97;97898.34;106150;1274;97937;-69
2022/01/09 05:52:52;;;;;;;68.50;33.80;;;;;;;-4.54;61.03;97901.70;106236;1274;97963;-70
2022/01/09 05:55:20;;;;;;;72.00;36.20;;;;;;;-4.52;61.16;97902.69;106131;1273;111329;-71
2022/01/09 05:57:49;;;;;;;76.50;32.90;;;;;;;-4.48;61.13;97897.19;106149;1274;97870;-71
2022/01/09 06:00:17;;;;;;;77.10;33.20;;;;;;;-4.45;61.22;97891.21;106222;1274;107856;-71
2022/01/09 06:02:45;;;;;;;72.10;33.00;;;;;;;-4.40;61.20;97889.15;106181;1274;97956;-71
2022/01/09 06:05:15;;;;;;;56.90;27.50;;;;;;;-4.37;61.11;97890.62;106278;1274;97960;-71
2022/01/09 06:07:44;;;;;;;67.70;28.80;;;;;;;-4.37;61.22;97887.36;106193;1274;111485;-70
2022/01/09 06:10:14;;;;;;;67.40;31.00;;;;;;;-4.48;61.24;97881.08;106129;1274;97872;-71
2022/01/09 06:12:41;;;;;;;73.50;33.00;;;;;;;-4.51;61.32;97885.33;106227;1273;107746;-72
2022/01/09 06:15:09;;;;;;;66.90;32.90;;;;;;;-4.47;61.35;97888.33;106221;1274;97956;-71
2022/01/09 06:17:42;;;;;;;72.40;32.80;;;;;;;-4.43;61.35;97884.73;106269;1274;99025;-70
2022/01/09 06:20:13;;;;;;;72.20;33.30;;;;;;;-4.39;61.44;97882.53;106252;1273;111507;-70
2022/01/09 06:22:44;;;;;;;69.70;33.00;;;;;;;-4.36;61.54;97884.36;106272;1274;97895;-70
2022/01/09 06:25:15;;;;;;;71.30;32.70;;;;;;;-4.33;61.45;97884.98;106183;1274;107742;-70
2022/01/09 06:27:44;;;;;;;67.60;32.10;;;;;;;-4.35;61.35;97889.70;106221;1274;97963;-71
2022/01/09 06:30:14;;;;;;;74.50;33.50;;;;;;;-4.34;61.43;97887.77;106142;1274;97892;-71
2022/01/09 06:32:43;;;;;;;60.80;28.50;;;;;;;-4.32;61.36;97888.40;106123;1273;111372;-72
2022/01/09 06:35:13;;;;;;;56.30;27.50;;;;;;;-4.33;61.20;97881.86;106185;1274;95244;-71
2022/01/09 06:37:43;;;;;;;57.60;28.60;;;;;;;-4.38;61.28;97874.57;106194;1274;106590;-71
2022/01/09 06:40:13;;;;;;;58.70;28.80;;;;;;;-4.50;61.64;97870.96;106154;1274;95233;-70
2022/01/09 06:42:40;;;;;;;55.30;26.80;;;;;;;-4.63;61.41;97862.34;106092;1274;96224;-70
2022/01/09 06:45:10;;;;;;;63.30;30.90;;;;;;;-4.67;61.44;97860.56;106221;1274;111727;-71
2022/01/09 06:47:38;;;;;;;62.90;29.80;;;;;;;-4.68;61.39;97862.83;106200;1274;97960;-70
2022/01/09 06:50:10;;;;;;;67.70;32.90;;;;;;;-4.66;61.39;97867.27;106152;1274;107877;-70
2022/01/09 06:52:39;;;;;;;46.50;24.70;;;;;;;-4.64;61.35;97869.46;106086;1274;96450;-69
2022/01/09 06:55:09;;;;;;;61.50;28.80;;;;;;;-4.62;61.38;97871.84;106139;1274;97954;-69
2022/01/09 06:57:39;;;;;;;61.10;29.10;;;;;;;-4.62;61.34;97878.59;106193;1274;112633;-69
2022/01/09 07:00:15;;;;;;;67.00;30.20;;;;;;;-4.61;61.74;97879.08;106222;1274;97949;-70
2022/01/09 07:02:45;;;;;;;64.20;31.60;;;;;;;-4.60;61.74;97884.56;106044;1276;107581;-70
2022/01/09 07:05:16;;;;;;;63.70;31.10;;;;;;;-4.56;61.79;97891.20;106097;1274;97834;-70
2022/01/09 07:07:44;;;;;;;65.10;30.80;;;;;;;-4.52;61.69;97888.13;106198;1274;96585;-68
2022/01/09 07:10:13;;;;;;;66.70;30.60;;;;;;;-4.47;61.75;97894.58;106142;1274;111204;-70
2022/01/09 07:12:41;;;;;;;62.10;32.00;;;;;;;-4.43;61.67;97901.35;106158;1273;97955;-69
2022/01/09 07:15:11;;;;;;;65.80;30.40;;;;;;;-4.39;61.59;97909.40;106082;1274;107667;-70
2022/01/09 07:17:39;;;;;;;63.70;30.60;;;;;;;-4.37;61.86;97908.95;106147;1274;98583;-71
2022/01/09 07:20:10;;;;;;;56.40;24.70;;;;;;;-4.34;61.68;97911.64;106118;1273;95270;-70
2022/01/09 07:22:38;;;;;;;61.30;25.70;;;;;;;-4.30;61.95;97913.10;106154;1274;111596;-70
2022/01/09 07:25:08;;;;;;;52.40;23.90;;;;;;;-4.25;61.95;97913.09;106244;1274;97690;-71
2022/01/09 07:27:38;;;;;;;51.50;24.00;;;;;;;-4.18;62.10;97917.05;106244;1274;107790;-69
2022/01/09 07:30:07;;;;;;;51.30;22.50;;;;;;;-4.12;62.09;97911.32;106142;1274;97947;-69
2022/01/09 07:32:37;;;;;;;52.00;25.20;;;;;;;-4.07;62.06;97904.88;106148;1274;97768;-71
2022/01/09 07:35:08;;;;;;;53.10;24.50;;;;;;;-4.01;62.15;97904.20;106098;1274;111615;-70
2022/01/09 07:37:36;;;;;;;49.50;21.40;;;;;;;-3.98;61.86;97901.69;106139;1274;96305;-71
2022/01/09 07:40:07;;;;;;;49.60;23.10;;;;;;;-3.96;61.92;97896.23;105975;1274;108369;-71
2022/01/09 07:42:36;;;;;;;50.70;23.30;;;;;;;-3.94;61.85;97893.41;106110;1274;97982;-71
2022/01/09 07:45:09;;;;;;;50.30;23.00;;;;;;;-3.90;62.09;97896.42;106142;1274;95179;-69
2022/01/09 07:47:39;;;;;;;52.70;25.70;;;;;;;-3.86;62.26;97895.92;106103;1274;111325;-68
2022/01/09 07:50:10;;;;;;;54.80;27.40;;;;;;;-3.81;62.44;97891.08;106090;1274;95210;-70
2022/01/09 07:52:39;;;;;;;54.70;26.30;;;;;;;-3.78;62.30;97887.86;106027;1275;107668;-72
2022/01/09 07:55:09;;;;;;;50.30;22.70;;;;;;;-3.71;62.42;97887.63;106241;1274;98008;-69
2022/01/09 07:57:37;;;;;;;42.10;20.60;;;;;;;-3.64;62.32;97888.44;106229;1274;95275;-69
2022/01/09 08:00:11;;;;;;;42.20;18.80;;;;;;;-3.56;62.49;97884.55;106239;1274;111455;-69
2022/01/09 08:02:41;;;;;;;39.90;18.70;;;;;;;-3.49;62.37;97885.14;106223;1273;97863;-69
2022/01/09 08:05:14;;;;;;;38.10;15.90;;;;;;;-3.40;62.12;97886.23;106204;1274;107653;-71
2022/01/09 08:07:44;;;;;;;37.20;16.70;;;;;;;-3.32;62.41;97885.77;106239;1274;97758;-69
2022/01/09 08:10:13;;;;;;;37.80;17.30;;;;;;;-3.23;62.32;97883.38;106218;1274;97942;-70
2022/01/09 08:12:43;;;;;;;40.80;17.50;;;;;;;-3.15;62.28;97890.91;106230;1274;111253;-69
2022/01/09 08:15:11;;;;;;;39.70;18.30;;;;;;;-3.08;62.47;97888.24;106207;1274;97957;-71
2022/01/09 08:17:46;;;;;;;39.90;18.00;;;;;;;-3.01;62.51;97888.48;106207;1273;107735;-71
2022/01/09 08:20:16;;;;;;;38.60;18.60;;;;;;;-2.94;62.35;97886.86;106194;1274;97822;-70
2022/01/09 08:22:44;;;;;;;35.80;17.10;;;;;;;-2.88;62.54;97889.94;106249;1274;97880;-70
2022/01/09 08:25:17;;;;;;;37.10;16.80;;;;;;;-2.81;62.39;97894.35;106085;1274;111443;-70
2022/01/09 08:27:47;;;;;;;41.10;19.60;;;;;;;-2.73;62.65;97898.23;106208;1274;97625;-72
2022/01/09 08:30:18;;;;;;;33.20;15.10;;;;;;;-2.66;62.55;97892.23;106184;1274;107812;-71
2022/01/09 08:32:49;;;;;;;40.60;19.10;;;;;;;-2.59;62.92;97891.98;106255;1273;97965;-71
2022/01/09 08:35:19;;;;;;;41.60;18.40;;;;;;;-2.53;62.55;97890.34;106294;1274;97809;-69
2022/01/09 08:37:49;;;;;;;39.10;18.10;;;;;;;-2.45;62.72;97888.14;106224;1274;111346;-69
2022/01/09 08:40:21;;;;;;;39.00;16.60;;;;;;;-2.39;62.75;97890.34;106253;1272;97950;-71
2022/01/09 08:42:53;;;;;;;35.30;15.40;;;;;;;-2.34;62.87;97890.32;106196;1274;108661;-71
2022/01/09 08:45:23;;;;;;;36.00;16.40;;;;;;;-2.29;62.78;97885.43;106093;1273;95198;-69
2022/01/09 08:47:51;;;;;;;35.10;16.00;;;;;;;-2.20;62.71;97888.41;106115;1274;97765;-70
2022/01/09 08:50:21;;;;;;;37.90;16.90;;;;;;;-2.12;62.90;97889.63;106076;1274;112100;-70
2022/01/09 08:52:49;;;;;;;37.80;16.40;;;;;;;-2.03;62.83;97884.74;106072;1274;97875;-70
2022/01/09 08:55:17;;;;;;;37.80;16.40;;;;;;;-1.91;62.74;97884.26;106103;1274;107684;-68
2022/01/09 08:57:45;;;;;;;35.60;17.10;;;;;;;-1.73;62.98;97884.23;106098;1274;96406;-72
2022/01/09 09:00:15;;;;;;;34.90;15.90;;;;;;;-1.50;63.25;97882.91;106084;1273;97967;-72
2022/01/09 09:02:43;;;;;;;37.90;17.80;;;;;;;-1.23;62.97;97879.86;106176;1274;111315;-71
2022/01/09 09:05:12;;;;;;;40.80;18.60;;;;;;;-0.95;62.94;97882.80;106097;1274;96225;-70
2022/01/09 09:07:40;;;;;;;40.50;18.90;;;;;;;-0.52;62.85;97878.39;106040;1274;107732;-72
2022/01/09 09:10:10;;;;;;;43.00;17.90;;;;;;;-0.14;62.99;97875.23;106081;1274;97837;-70
2022/01/09 09:12:38;;;;;;;41.10;20.30;;;;;;;0.20;63.17;97868.71;106087;1274;97956;-69
2022/01/09 09:15:12;;;;;;;40.50;18.20;;;;;;;0.57;63.29;97863.91;106058;1274;112057;-70
2022/01/09 09:17:41;;;;;;;35.70;17.40;;;;;;;0.92;63.43;97860.01;106091;1274;97974;-69
2022/01/09 09:20:11;;;;;;;35.40;16.70;;;;;;;1.31;63.20;97859.89;106049;1274;107675;-70
2022/01/09 09:22:40;;;;;;;35.00;15.40;;;;;;;1.81;63.14;97860.09;106107;1273;98013;-69
2022/01/09 09:25:10;;;;;;;32.60;15.20;;;;;;;2.41;63.23;97861.23;106123;1274;97953;-68
2022/01/09 09:27:38;;;;;;;35.60;15.80;;;;;;;2.90;63.38;97855.71;106148;1274;111726;-69
2022/01/09 09:30:10;;;;;;;32.20;14.70;;;;;;;3.27;63.00;97852.25;106022;1274;98549;-70
2022/01/09 09:32:39;;;;;;;29.60;14.60;;;;;;;3.68;63.39;97850.58;106100;1274;107458;-70
2022/01/09 09:35:09;;;;;;;35.40;17.80;;;;;;;3.97;63.22;97849.71;106114;1273;98553;-68
2022/01/09 09:37:37;;;;;;;28.90;14.00;;;;;;;4.16;63.13;97846.55;106118;1272;96351;-69
2022/01/09 09:40:07;;;;;;;29.80;15.20;;;;;;;4.28;63.28;97846.15;106106;1274;112073;-69
2022/01/09 09:42:35;;;;;;;31.90;15.10;;;;;;;4.37;63.19;97842.55;106191;1274;96358;-68
2022/01/09 09:45:06;;;;;;;30.60;15.30;;;;;;;4.43;63.26;97841.80;106253;1274;107671;-69
2022/01/09 09:47:37;;;;;;;31.60;14.70;;;;;;;4.41;62.94;97841.04;106212;1274;97883;-69
2022/01/09 09:50:10;;;;;;;30.80;15.00;;;;;;;4.41;62.96;97840.69;106014;1275;98084;-70
2022/01/09 09:52:41;;;;;;;34.00;14.70;;;;;;;4.44;63.10;97837.91;106095;1274;111367;-71
2022/01/09 09:55:10;;;;;;;33.10;16.10;;;;;;;4.44;63.02;97832.10;106122;1274;97834;-70
2022/01/09 09:57:38;;;;;;;29.80;14.90;;;;;;;4.40;62.82;97828.88;106225;1274;107524;-69
2022/01/09 10:00:12;;;;;;;31.60;16.50;;;;;;;4.38;62.72;97830.25;106188;1274;95890;-68
2022/01/09 10:02:53;;;;;;;34.60;16.60;;;;;;;4.41;62.83;97821.27;106031;1274;95360;-70
2022/01/09 10:05:26;;;;;;;29.70;15.00;;;;;;;4.43;62.68;97819.36;106063;1274;110090;-70
2022/01/09 10:08:06;;;;;;;26.40;12.30;;;;;;;4.45;62.61;97818.15;106141;1274;98113;-71
2022/01/09 10:10:38;;;;;;;34.00;17.00;;;;;;;4.48;62.48;97817.44;106146;1274;107468;-70
2022/01/09 10:13:10;;;;;;;35.30;17.30;;;;;;;4.52;62.38;97820.48;106177;1274;96398;-72
2022/01/09 10:15:50;;;;;;;32.60;16.30;;;;;;;4.44;62.23;97824.87;106137;1274;97886;-70
2022/01/09 10:18:49;;;;;;;33.60;16.50;;;;;;;4.30;61.60;97830.73;106105;1274;111427;-72
2022/01/09 10:21:20;;;;;;;32.20;15.00;;;;;;;4.04;61.33;97836.14;106242;1274;97965;-70
2022/01/09 10:23:57;;;;;;;33.50;16.10;;;;;;;3.81;60.77;97833.75;106139;1274;107717;-70
2022/01/09 10:26:27;;;;;;;31.80;15.30;;;;;;;3.65;61.33;97840.05;106057;1272;97938;-70
2022/01/09 10:28:57;;;;;;;31.30;15.70;;;;;;;3.73;61.59;97835.52;106035;1274;95269;-70
2022/01/09 10:31:28;;;;;;;33.20;16.10;;;;;;;3.79;61.29;97832.33;106136;1274;111418;-70
2022/01/09 10:34:03;;;;;;;32.20;16.20;;;;;;;3.73;61.28;97834.42;106137;1274;95354;-69
2022/01/09 10:36:44;;;;;;;33.40;16.60;;;;;;;3.83;61.61;97835.20;106161;1274;107801;-69
2022/01/09 10:39:17;;;;;;;33.20;16.00;;;;;;;3.98;61.42;97832.99;106026;1274;97774;-69
2022/01/09 10:41:47;;;;;;;31.80;15.50;;;;;;;4.05;61.25;97829.94;105973;1274;98022;-70
2022/01/09 10:44:22;;;;;;;34.90;17.80;;;;;;;4.12;61.24;97832.11;105990;1273;111526;-70
2022/01/09 10:47:16;;;;;;;32.10;16.00;;;;;;;4.23;61.24;97833.33;106023;1275;98006;-68
2022/01/09 10:49:51;;;;;;;35.50;16.00;;;;;;;4.35;61.28;97831.84;106017;1274;106745;-71
2022/01/09 10:52:26;;;;;;;34.50;16.40;;;;;;;4.47;61.23;97832.05;105845;1274;96472;-70
2022/01/09 10:54:56;;;;;;;34.70;15.60;;;;;;;4.59;61.35;97826.70;106086;1274;96359;-69
2022/01/09 10:57:32;;;;;;;35.50;16.80;;;;;;;4.69;61.16;97827.83;106050;1274;111935;-70
2022/01/09 11:00:11;;;;;;;33.30;15.90;;;;;;;4.70;60.86;97825.77;105918;1274;97888;-69
2022/01/09 11:02:39;;;;;;;36.50;16.50;;;;;;;4.54;60.38;97826.52;107994;1273;107638;-69
2022/01/09 11:05:08;;;;;;;33.40;15.50;;;;;;;4.45;60.51;97832.52;108031;1273;95810;-69
2022/01/09 11:07:36;;;;;;;32.50;16.10;;;;;;;4.51;60.59;97830.03;107922;1274;96032;-69
2022/01/09 11:10:07;;;;;;;32.00;16.30;;;;;;;4.58;60.56;97829.73;106710;1272;111621;-67
2022/01/09 11:12:47;;;;;;;33.50;15.80;;;;;;;4.70;60.68;97827.17;105868;1276;97841;-70
2022/01/09 11:15:21;;;;;;;33.20;16.00;;;;;;;4.81;60.49;97822.92;106162;1274;107673;-72
2022/01/09 11:17:52;;;;;;;32.10;14.90;;;;;;;4.83;60.22;97822.80;106102;1274;96367;-71
2022/01/09 11:20:21;;;;;;;30.90;15.10;;;;;;;4.83;60.08;97823.33;106078;1274;95923;-72